sensor_id;sensor_type;location;lat;lon;timestamp;pressure;altitude;pressure_sealevel;temperature;humidity
15880;BME280;61999;51.514;14.614;2023-07-29T00:01:24;99311.94;;;13.61;77.77
15880;BME280;61999;51.514;14.614;2023-07-29T00:03:52;99319.84;;;13.53;79.03
15880;BME280;61999;51.514;14.614;2023-07-29T00:06:20;99314.53;;;13.53;78.40
15880;BME280;61999;51.514;14.614;2023-07-29T00:08:49;99315.69;;;13.50;78.21
15880;BME280;61999;51.514;14.614;2023-07-29T00:11:16;99309.72;;;13.48;78.23
15880;BME280;61999;51.514;14.614;2023-07-29T00:13:44;99316.00;;;13.47;78.11
15880;BME280;61999;51.514;14.614;2023-07-29T00:16:14;99314.34;;;13.46;78.11
15880;BME280;61999;51.514;14.614;2023-07-29T00:18:45;99311.03;;;13.44;78.24
15880;BME280;61999;51.514;14.614;2023-07-29T00:21:13;99314.66;;;13.43;78.94
15880;BME280;61999;51.514;14.614;2023-07-29T00:23:40;99298.44;;;13.38;78.70
15880;BME280;61999;51.514;14.614;2023-07-29T00:26:08;99297.75;;;13.36;78.84
15880;BME280;61999;51.514;14.614;2023-07-29T00:28:36;99298.91;;;13.33;79.00
15880;BME280;61999;51.514;14.614;2023-07-29T00:31:04;99304.50;;;13.30;79.16
15880;BME280;61999;51.514;14.614;2023-07-29T00:33:32;99298.72;;;13.27;79.73
15880;BME280;61999;51.514;14.614;2023-07-29T00:36:02;99303.16;;;13.26;78.93
15880;BME280;61999;51.514;14.614;2023-07-29T00:38:30;99299.84;;;13.24;78.52
15880;BME280;61999;51.514;14.614;2023-07-29T00:40:57;99300.00;;;13.23;78.43
15880;BME280;61999;51.514;14.614;2023-07-29T00:43:26;99302.97;;;13.20;78.35
15880;BME280;61999;51.514;14.614;2023-07-29T00:45:54;99290.88;;;13.17;78.30
15880;BME280;61999;51.514;14.614;2023-07-29T00:48:25;99291.06;;;13.15;78.14
15880;BME280;61999;51.514;14.614;2023-07-29T00:50:55;99295.97;;;13.10;79.18
15880;BME280;61999;51.514;14.614;2023-07-29T00:53:24;99295.28;;;13.08;79.73
15880;BME280;61999;51.514;14.614;2023-07-29T00:55:53;99294.78;;;13.05;79.71
15880;BME280;61999;51.514;14.614;2023-07-29T00:58:21;99289.00;;;13.01;79.86
15880;BME280;61999;51.514;14.614;2023-07-29T01:00:50;99295.25;;;13.00;79.23
15880;BME280;61999;51.514;14.614;2023-07-29T01:03:18;99292.09;;;12.97;79.25
15880;BME280;61999;51.514;14.614;2023-07-29T01:06:01;99296.56;;;12.96;79.25
15880;BME280;61999;51.514;14.614;2023-07-29T01:08:46;99288.09;;;12.92;79.89
15880;BME280;61999;51.514;14.614;2023-07-29T01:11:31;99286.56;;;12.90;79.94
15880;BME280;61999;51.514;14.614;2023-07-29T01:14:10;99286.88;;;12.87;79.60
15880;BME280;61999;51.514;14.614;2023-07-29T01:16:45;99286.34;;;12.83;80.51
15880;BME280;61999;51.514;14.614;2023-07-29T01:19:43;99289.47;;;12.79;80.41
15880;BME280;61999;51.514;14.614;2023-07-29T01:22:11;99285.31;;;12.76;80.54
15880;BME280;61999;51.514;14.614;2023-07-29T01:24:42;99284.50;;;12.76;80.46
15880;BME280;61999;51.514;14.614;2023-07-29T01:27:10;99289.09;;;12.74;81.35
15880;BME280;61999;51.514;14.614;2023-07-29T01:29:38;99280.47;;;12.71;80.67
15880;BME280;61999;51.514;14.614;2023-07-29T01:32:11;99281.34;;;12.72;80.87
15880;BME280;61999;51.514;14.614;2023-07-29T01:34:48;99273.69;;;12.69;80.66
15880;BME280;61999;51.514;14.614;2023-07-29T01:37:26;99273.88;;;12.67;80.98
15880;BME280;61999;51.514;14.614;2023-07-29T01:39:58;99273.19;;;12.65;80.62
15880;BME280;61999;51.514;14.614;2023-07-29T01:42:27;99275.13;;;12.63;81.63
15880;BME280;61999;51.514;14.614;2023-07-29T01:44:56;99266.56;;;12.61;80.91
15880;BME280;61999;51.514;14.614;2023-07-29T01:47:24;99271.16;;;12.59;81.14
15880;BME280;61999;51.514;14.614;2023-07-29T01:49:52;99277.44;;;12.58;81.33
15880;BME280;61999;51.514;14.614;2023-07-29T01:52:20;99268.81;;;12.56;80.98
15880;BME280;61999;51.514;14.614;2023-07-29T01:54:48;99261.03;;;12.55;81.75
15880;BME280;61999;51.514;14.614;2023-07-29T01:57:17;99265.50;;;12.54;81.42
15880;BME280;61999;51.514;14.614;2023-07-29T01:59:45;99262.34;;;12.51;81.70
15880;BME280;61999;51.514;14.614;2023-07-29T02:02:13;99265.28;;;12.47;81.99
15880;BME280;61999;51.514;14.614;2023-07-29T02:04:41;99262.78;;;12.46;81.63
15880;BME280;61999;51.514;14.614;2023-07-29T02:07:09;99258.66;;;12.43;81.63
15880;BME280;61999;51.514;14.614;2023-07-29T02:09:36;99254.50;;;12.41;82.22
15880;BME280;61999;51.514;14.614;2023-07-29T02:12:05;99264.41;;;12.39;82.29
15880;BME280;61999;51.514;14.614;2023-07-29T02:14:35;99274.28;;;12.37;82.44
15880;BME280;61999;51.514;14.614;2023-07-29T02:17:03;99272.94;;;12.33;82.27
15880;BME280;61999;51.514;14.614;2023-07-29T02:19:31;99279.19;;;12.32;82.33
15880;BME280;61999;51.514;14.614;2023-07-29T02:22:00;99275.72;;;12.31;82.38
15880;BME280;61999;51.514;14.614;2023-07-29T02:24:27;99276.88;;;12.29;83.09
15880;BME280;61999;51.514;14.614;2023-07-29T02:26:55;99270.91;;;12.26;82.74
15880;BME280;61999;51.514;14.614;2023-07-29T02:29:23;99270.53;;;12.21;85.42
15880;BME280;61999;51.514;14.614;2023-07-29T02:31:53;99265.16;;;12.13;90.71
15880;BME280;61999;51.514;14.614;2023-07-29T02:34:21;99265.28;;;12.12;92.41
15880;BME280;61999;51.514;14.614;2023-07-29T02:36:48;99269.44;;;12.14;90.19
15880;BME280;61999;51.514;14.614;2023-07-29T02:39:16;99271.72;;;12.09;96.14
15880;BME280;61999;51.514;14.614;2023-07-29T02:41:44;99270.66;;;11.66;100.00
15880;BME280;61999;51.514;14.614;2023-07-29T02:44:12;99275.16;;;11.92;100.00
15880;BME280;61999;51.514;14.614;2023-07-29T02:46:40;99282.41;;;11.07;100.00
15880;BME280;61999;51.514;14.614;2023-07-29T02:49:09;99280.44;;;10.23;100.00
15880;BME280;61999;51.514;14.614;2023-07-29T02:51:37;99278.66;;;10.04;100.00
15880;BME280;61999;51.514;14.614;2023-07-29T02:54:05;99271.44;;;10.25;100.00
15880;BME280;61999;51.514;14.614;2023-07-29T02:56:33;99265.47;;;10.33;100.00
15880;BME280;61999;51.514;14.614;2023-07-29T02:59:01;99279.63;;;10.32;100.00
15880;BME280;61999;51.514;14.614;2023-07-29T03:01:28;99281.81;;;10.37;100.00
15880;BME280;61999;51.514;14.614;2023-07-29T03:03:56;99283.25;;;10.60;100.00
15880;BME280;61999;51.514;14.614;2023-07-29T03:06:25;99277.44;;;10.94;100.00
15880;BME280;61999;51.514;14.614;2023-07-29T03:08:53;99280.50;;;11.36;100.00
15880;BME280;61999;51.514;14.614;2023-07-29T03:11:21;99288.31;;;10.81;100.00
15880;BME280;61999;51.514;14.614;2023-07-29T03:13:49;99297.84;;;11.02;100.00
15880;BME280;61999;51.514;14.614;2023-07-29T03:16:18;99296.38;;;10.31;100.00
15880;BME280;61999;51.514;14.614;2023-07-29T03:18:48;99302.53;;;10.32;100.00
15880;BME280;61999;51.514;14.614;2023-07-29T03:21:16;99298.78;;;10.15;100.00
15880;BME280;61999;51.514;14.614;2023-07-29T03:23:45;99301.69;;;10.12;100.00
15880;BME280;61999;51.514;14.614;2023-07-29T03:26:13;99302.94;;;10.27;100.00
15880;BME280;61999;51.514;14.614;2023-07-29T03:28:43;99303.19;;;10.05;100.00
15880;BME280;61999;51.514;14.614;2023-07-29T03:31:12;99296.53;;;10.20;100.00
15880;BME280;61999;51.514;14.614;2023-07-29T03:33:39;99297.91;;;10.05;100.00
15880;BME280;61999;51.514;14.614;2023-07-29T03:36:07;99303.03;;;10.25;100.00
15880;BME280;61999;51.514;14.614;2023-07-29T03:38:35;99309.53;;;10.89;100.00
15880;BME280;61999;51.514;14.614;2023-07-29T03:41:09;99305.28;;;10.69;100.00
15880;BME280;61999;51.514;14.614;2023-07-29T03:43:37;99307.22;;;10.67;100.00
15880;BME280;61999;51.514;14.614;2023-07-29T03:46:05;99303.50;;;10.40;100.00
15880;BME280;61999;51.514;14.614;2023-07-29T03:48:34;99306.00;;;11.08;100.00
15880;BME280;61999;51.514;14.614;2023-07-29T03:51:02;99310.91;;;10.93;100.00
15880;BME280;61999;51.514;14.614;2023-07-29T03:53:30;99309.34;;;11.10;100.00
15880;BME280;61999;51.514;14.614;2023-07-29T03:55:58;99311.00;;;11.49;100.00
15880;BME280;61999;51.514;14.614;2023-07-29T03:58:27;99316.56;;;12.01;100.00
15880;BME280;61999;51.514;14.614;2023-07-29T04:00:55;99316.34;;;12.12;100.00
15880;BME280;61999;51.514;14.614;2023-07-29T04:03:23;99312.25;;;12.00;100.00
15880;BME280;61999;51.514;14.614;2023-07-29T04:05:50;99315.09;;;11.89;100.00
15880;BME280;61999;51.514;14.614;2023-07-29T04:08:19;99317.31;;;11.66;100.00
15880;BME280;61999;51.514;14.614;2023-07-29T04:10:46;99305.66;;;11.86;100.00
15880;BME280;61999;51.514;14.614;2023-07-29T04:13:15;99304.69;;;12.05;100.00
15880;BME280;61999;51.514;14.614;2023-07-29T04:15:45;99308.66;;;12.19;100.00
15880;BME280;61999;51.514;14.614;2023-07-29T04:18:13;99303.44;;;12.45;100.00
15880;BME280;61999;51.514;14.614;2023-07-29T04:20:41;99301.59;;;12.63;100.00
15880;BME280;61999;51.514;14.614;2023-07-29T04:23:09;99301.03;;;12.78;100.00
15880;BME280;61999;51.514;14.614;2023-07-29T04:25:36;99308.06;;;12.87;100.00
15880;BME280;61999;51.514;14.614;2023-07-29T04:28:04;99301.13;;;12.94;100.00
15880;BME280;61999;51.514;14.614;2023-07-29T04:30:32;99301.53;;;12.99;100.00
15880;BME280;61999;51.514;14.614;2023-07-29T04:33:03;99306.81;;;12.99;100.00
15880;BME280;61999;51.514;14.614;2023-07-29T04:35:31;99307.84;;;13.06;100.00
15880;BME280;61999;51.514;14.614;2023-07-29T04:37:59;99300.38;;;12.76;100.00
15880;BME280;61999;51.514;14.614;2023-07-29T04:40:26;99311.31;;;12.81;100.00
15880;BME280;61999;51.514;14.614;2023-07-29T04:42:54;99313.47;;;12.85;100.00
15880;BME280;61999;51.514;14.614;2023-07-29T04:45:22;99306.91;;;12.89;100.00
15880;BME280;61999;51.514;14.614;2023-07-29T04:47:51;99313.09;;;12.72;100.00
15880;BME280;61999;51.514;14.614;2023-07-29T04:50:20;99313.50;;;13.11;100.00
15880;BME280;61999;51.514;14.614;2023-07-29T04:52:48;99310.84;;;13.11;100.00
15880;BME280;61999;51.514;14.614;2023-07-29T04:55:16;99314.63;;;13.01;100.00
15880;BME280;61999;51.514;14.614;2023-07-29T04:57:44;99301.78;;;13.48;100.00
15880;BME280;61999;51.514;14.614;2023-07-29T05:00:12;99305.50;;;13.64;100.00
15880;BME280;61999;51.514;14.614;2023-07-29T05:02:40;99306.31;;;13.64;100.00
15880;BME280;61999;51.514;14.614;2023-07-29T05:05:08;99304.72;;;13.79;100.00
15880;BME280;61999;51.514;14.614;2023-07-29T05:07:37;99305.25;;;13.14;100.00
15880;BME280;61999;51.514;14.614;2023-07-29T05:10:07;99307.03;;;12.62;100.00
15880;BME280;61999;51.514;14.614;2023-07-29T05:12:35;99296.84;;;12.93;100.00
15880;BME280;61999;51.514;14.614;2023-07-29T05:15:05;99310.16;;;13.01;100.00
15880;BME280;61999;51.514;14.614;2023-07-29T05:17:33;99309.50;;;12.63;100.00
15880;BME280;61999;51.514;14.614;2023-07-29T05:20:01;99306.84;;;12.37;100.00
15880;BME280;61999;51.514;14.614;2023-07-29T05:22:29;99308.41;;;12.92;100.00
15880;BME280;61999;51.514;14.614;2023-07-29T05:24:58;99306.59;;;12.66;100.00
15880;BME280;61999;51.514;14.614;2023-07-29T05:27:26;99309.38;;;12.91;100.00
15880;BME280;61999;51.514;14.614;2023-07-29T05:29:54;99301.19;;;13.28;100.00
15880;BME280;61999;51.514;14.614;2023-07-29T05:32:22;99302.25;;;13.86;100.00
15880;BME280;61999;51.514;14.614;2023-07-29T05:34:50;99303.06;;;13.78;100.00
15880;BME280;61999;51.514;14.614;2023-07-29T05:37:18;99296.09;;;13.77;100.00
15880;BME280;61999;51.514;14.614;2023-07-29T05:39:46;99297.00;;;14.11;100.00
15880;BME280;61999;51.514;14.614;2023-07-29T05:42:15;99299.16;;;14.15;100.00
15880;BME280;61999;51.514;14.614;2023-07-29T05:44:43;99303.97;;;14.20;100.00
15880;BME280;61999;51.514;14.614;2023-07-29T05:47:11;99310.19;;;13.86;100.00
15880;BME280;61999;51.514;14.614;2023-07-29T05:49:39;99312.09;;;13.68;100.00
15880;BME280;61999;51.514;14.614;2023-07-29T05:52:07;99311.06;;;13.52;100.00
15880;BME280;61999;51.514;14.614;2023-07-29T05:54:35;99314.94;;;13.32;100.00
15880;BME280;61999;51.514;14.614;2023-07-29T05:57:04;99311.50;;;13.74;100.00
15880;BME280;61999;51.514;14.614;2023-07-29T05:59:33;99310.44;;;14.25;100.00
15880;BME280;61999;51.514;14.614;2023-07-29T06:02:01;99316.78;;;13.05;100.00
15880;BME280;61999;51.514;14.614;2023-07-29T06:04:30;99311.91;;;12.75;100.00
15880;BME280;61999;51.514;14.614;2023-07-29T06:06:58;99305.91;;;13.51;100.00
15880;BME280;61999;51.514;14.614;2023-07-29T06:09:26;99309.34;;;13.43;100.00
15880;BME280;61999;51.514;14.614;2023-07-29T06:11:54;99312.09;;;13.68;100.00
15880;BME280;61999;51.514;14.614;2023-07-29T06:14:22;99304.47;;;14.15;100.00
15880;BME280;61999;51.514;14.614;2023-07-29T06:16:52;99303.16;;;13.69;100.00
15880;BME280;61999;51.514;14.614;2023-07-29T06:19:20;99300.50;;;14.19;100.00
15880;BME280;61999;51.514;14.614;2023-07-29T06:21:48;99313.03;;;13.50;100.00
15880;BME280;61999;51.514;14.614;2023-07-29T06:24:16;99299.97;;;13.14;100.00
15880;BME280;61999;51.514;14.614;2023-07-29T06:26:44;99298.03;;;13.25;100.00
15880;BME280;61999;51.514;14.614;2023-07-29T06:29:12;99293.00;;;13.13;100.00
15880;BME280;61999;51.514;14.614;2023-07-29T06:31:40;99290.28;;;12.97;100.00
15880;BME280;61999;51.514;14.614;2023-07-29T06:34:09;99284.81;;;12.55;100.00
15880;BME280;61999;51.514;14.614;2023-07-29T06:36:37;99278.53;;;12.30;100.00
15880;BME280;61999;51.514;14.614;2023-07-29T06:39:05;99272.78;;;12.52;100.00
15880;BME280;61999;51.514;14.614;2023-07-29T06:41:33;99277.84;;;13.24;100.00
15880;BME280;61999;51.514;14.614;2023-07-29T06:44:00;99273.81;;;13.11;100.00
15880;BME280;61999;51.514;14.614;2023-07-29T06:46:28;99274.00;;;12.92;100.00
15880;BME280;61999;51.514;14.614;2023-07-29T06:48:56;99268.56;;;13.20;100.00
15880;BME280;61999;51.514;14.614;2023-07-29T06:51:26;99268.84;;;13.08;100.00
15880;BME280;61999;51.514;14.614;2023-07-29T06:53:56;99273.63;;;13.47;100.00
15880;BME280;61999;51.514;14.614;2023-07-29T06:56:23;99265.91;;;13.20;100.00
15880;BME280;61999;51.514;14.614;2023-07-29T06:58:51;99263.53;;;12.82;100.00
15880;BME280;61999;51.514;14.614;2023-07-29T07:01:19;99261.88;;;13.07;100.00
15880;BME280;61999;51.514;14.614;2023-07-29T07:03:47;99263.44;;;13.69;100.00
15880;BME280;61999;51.514;14.614;2023-07-29T07:06:15;99256.69;;;13.24;100.00
15880;BME280;61999;51.514;14.614;2023-07-29T07:08:44;99265.78;;;13.72;100.00
15880;BME280;61999;51.514;14.614;2023-07-29T07:11:12;99267.63;;;13.79;100.00
15880;BME280;61999;51.514;14.614;2023-07-29T07:13:40;99265.75;;;13.21;100.00
15880;BME280;61999;51.514;14.614;2023-07-29T07:16:08;99268.31;;;13.98;100.00
15880;BME280;61999;51.514;14.614;2023-07-29T07:18:36;99274.78;;;13.95;100.00
15880;BME280;61999;51.514;14.614;2023-07-29T07:21:04;99262.50;;;13.86;100.00
15880;BME280;61999;51.514;14.614;2023-07-29T07:23:32;99268.53;;;14.45;100.00
15880;BME280;61999;51.514;14.614;2023-07-29T07:26:01;99278.47;;;14.52;100.00
15880;BME280;61999;51.514;14.614;2023-07-29T07:28:29;99275.97;;;14.66;100.00
15880;BME280;61999;51.514;14.614;2023-07-29T07:30:57;99270.34;;;14.53;100.00
15880;BME280;61999;51.514;14.614;2023-07-29T07:33:26;99273.81;;;14.62;99.27
15880;BME280;61999;51.514;14.614;2023-07-29T07:35:53;99269.50;;;14.69;99.01
15880;BME280;61999;51.514;14.614;2023-07-29T07:38:21;99274.97;;;14.35;100.00
15880;BME280;61999;51.514;14.614;2023-07-29T07:40:53;99287.28;;;14.44;100.00
15880;BME280;61999;51.514;14.614;2023-07-29T07:43:24;99277.78;;;14.66;100.00
15880;BME280;61999;51.514;14.614;2023-07-29T07:45:58;99283.06;;;14.90;100.00
15880;BME280;61999;51.514;14.614;2023-07-29T07:48:26;99278.31;;;15.33;93.79
15880;BME280;61999;51.514;14.614;2023-07-29T07:50:54;99278.41;;;15.48;93.84
15880;BME280;61999;51.514;14.614;2023-07-29T07:53:22;99286.56;;;14.83;95.39
15880;BME280;61999;51.514;14.614;2023-07-29T07:55:52;99274.81;;;14.36;100.00
15880;BME280;61999;51.514;14.614;2023-07-29T07:58:20;99273.00;;;14.61;100.00
15880;BME280;61999;51.514;14.614;2023-07-29T08:00:49;99282.94;;;14.51;99.19
15880;BME280;61999;51.514;14.614;2023-07-29T08:03:17;99272.09;;;14.93;100.00
15880;BME280;61999;51.514;14.614;2023-07-29T08:05:46;99272.81;;;14.55;99.58
15880;BME280;61999;51.514;14.614;2023-07-29T08:08:14;99267.75;;;15.17;94.83
15880;BME280;61999;51.514;14.614;2023-07-29T08:10:42;99265.88;;;15.26;95.35
15880;BME280;61999;51.514;14.614;2023-07-29T08:13:10;99266.81;;;15.72;91.74
15880;BME280;61999;51.514;14.614;2023-07-29T08:15:38;99258.34;;;15.37;87.87
15880;BME280;61999;51.514;14.614;2023-07-29T08:18:09;99259.44;;;15.12;93.66
15880;BME280;61999;51.514;14.614;2023-07-29T08:20:36;99257.13;;;15.17;91.65
15880;BME280;61999;51.514;14.614;2023-07-29T08:23:04;99257.47;;;16.08;86.71
15880;BME280;61999;51.514;14.614;2023-07-29T08:25:32;99255.94;;;15.59;87.74
15880;BME280;61999;51.514;14.614;2023-07-29T08:28:00;99240.84;;;15.12;91.03
15880;BME280;61999;51.514;14.614;2023-07-29T08:30:28;99232.72;;;16.07;87.60
15880;BME280;61999;51.514;14.614;2023-07-29T08:32:56;99230.19;;;16.81;83.46
15880;BME280;61999;51.514;14.614;2023-07-29T08:35:25;99227.44;;;17.34;79.94
15880;BME280;61999;51.514;14.614;2023-07-29T08:37:53;99232.59;;;16.76;79.62
15880;BME280;61999;51.514;14.614;2023-07-29T08:40:29;99233.78;;;17.03;77.20
15880;BME280;61999;51.514;14.614;2023-07-29T08:43:04;99232.84;;;16.66;78.76
15880;BME280;61999;51.514;14.614;2023-07-29T08:45:35;99219.44;;;15.53;85.62
15880;BME280;61999;51.514;14.614;2023-07-29T08:48:07;99217.66;;;16.37;84.50
15880;BME280;61999;51.514;14.614;2023-07-29T08:50:37;99221.88;;;16.46;81.30
15880;BME280;61999;51.514;14.614;2023-07-29T08:53:06;99213.91;;;17.72;78.06
15880;BME280;61999;51.514;14.614;2023-07-29T08:55:34;99221.31;;;17.91;73.78
15880;BME280;61999;51.514;14.614;2023-07-29T08:58:03;99215.97;;;16.89;74.05
15880;BME280;61999;51.514;14.614;2023-07-29T09:00:32;99220.59;;;16.27;77.61
15880;BME280;61999;51.514;14.614;2023-07-29T09:03:00;99225.00;;;17.17;77.91
15880;BME280;61999;51.514;14.614;2023-07-29T09:05:33;99213.28;;;17.70;74.03
15880;BME280;61999;51.514;14.614;2023-07-29T09:08:05;99224.34;;;18.87;70.20
15880;BME280;61999;51.514;14.614;2023-07-29T09:10:35;99215.69;;;18.50;64.12
15880;BME280;61999;51.514;14.614;2023-07-29T09:13:04;99210.63;;;18.62;69.95
15880;BME280;61999;51.514;14.614;2023-07-29T09:15:34;99212.28;;;19.53;63.54
15880;BME280;61999;51.514;14.614;2023-07-29T09:18:10;99214.63;;;19.82;62.85
15880;BME280;61999;51.514;14.614;2023-07-29T09:20:38;99219.88;;;19.42;60.24
15880;BME280;61999;51.514;14.614;2023-07-29T09:23:10;99213.03;;;18.92;63.81
15880;BME280;61999;51.514;14.614;2023-07-29T09:25:39;99223.91;;;19.25;61.75
15880;BME280;61999;51.514;14.614;2023-07-29T09:28:09;99216.66;;;19.67;62.60
15880;BME280;61999;51.514;14.614;2023-07-29T09:30:39;99214.88;;;20.41;61.79
15880;BME280;61999;51.514;14.614;2023-07-29T09:33:07;99211.84;;;18.38;63.69
15880;BME280;61999;51.514;14.614;2023-07-29T09:35:36;99221.03;;;19.27;61.70
15880;BME280;61999;51.514;14.614;2023-07-29T09:38:06;99220.63;;;20.11;60.46
15880;BME280;61999;51.514;14.614;2023-07-29T09:40:40;99212.44;;;20.39;58.27
15880;BME280;61999;51.514;14.614;2023-07-29T09:43:09;99210.94;;;19.83;58.50
15880;BME280;61999;51.514;14.614;2023-07-29T09:45:38;99207.66;;;20.15;58.28
15880;BME280;61999;51.514;14.614;2023-07-29T09:48:05;99205.00;;;20.08;56.53
15880;BME280;61999;51.514;14.614;2023-07-29T09:50:36;99203.88;;;20.89;57.75
15880;BME280;61999;51.514;14.614;2023-07-29T09:53:07;99212.97;;;20.74;55.34
15880;BME280;61999;51.514;14.614;2023-07-29T09:55:36;99205.16;;;20.80;55.41
15880;BME280;61999;51.514;14.614;2023-07-29T09:58:04;99215.66;;;21.33;52.93
15880;BME280;61999;51.514;14.614;2023-07-29T10:00:35;99202.69;;;20.71;53.13
15880;BME280;61999;51.514;14.614;2023-07-29T10:03:06;99198.28;;;19.51;57.70
15880;BME280;61999;51.514;14.614;2023-07-29T10:05:34;99200.56;;;19.54;58.43
15880;BME280;61999;51.514;14.614;2023-07-29T10:08:04;99199.84;;;20.26;56.65
15880;BME280;61999;51.514;14.614;2023-07-29T10:10:32;99195.31;;;20.27;55.44
15880;BME280;61999;51.514;14.614;2023-07-29T10:13:02;99198.09;;;19.52;55.80
15880;BME280;61999;51.514;14.614;2023-07-29T10:15:32;99183.34;;;19.90;57.75
15880;BME280;61999;51.514;14.614;2023-07-29T10:18:02;99201.03;;;19.77;55.45
15880;BME280;61999;51.514;14.614;2023-07-29T10:20:32;99194.84;;;20.70;54.86
15880;BME280;61999;51.514;14.614;2023-07-29T10:23:01;99192.81;;;20.19;52.97
15880;BME280;61999;51.514;14.614;2023-07-29T10:25:38;99194.22;;;19.07;56.44
15880;BME280;61999;51.514;14.614;2023-07-29T10:28:12;99191.50;;;19.55;54.92
15880;BME280;61999;51.514;14.614;2023-07-29T10:30:42;99190.47;;;19.01;55.42
15880;BME280;61999;51.514;14.614;2023-07-29T10:33:10;99181.66;;;18.59;59.45
15880;BME280;61999;51.514;14.614;2023-07-29T10:35:38;99184.44;;;18.23;60.80
15880;BME280;61999;51.514;14.614;2023-07-29T10:38:07;99173.41;;;17.40;64.71
15880;BME280;61999;51.514;14.614;2023-07-29T10:40:47;99174.13;;;19.11;59.05
15880;BME280;61999;51.514;14.614;2023-07-29T10:43:25;99179.38;;;18.06;59.73
15880;BME280;61999;51.514;14.614;2023-07-29T10:45:58;99166.03;;;18.06;62.82
15880;BME280;61999;51.514;14.614;2023-07-29T10:48:44;99164.28;;;17.71;61.95
15880;BME280;61999;51.514;14.614;2023-07-29T10:51:28;99164.28;;;17.92;61.01
15880;BME280;61999;51.514;14.614;2023-07-29T10:54:02;99161.09;;;17.60;63.11
15880;BME280;61999;51.514;14.614;2023-07-29T10:56:33;99161.34;;;18.08;61.20
15880;BME280;61999;51.514;14.614;2023-07-29T10:59:32;99150.41;;;17.17;64.85
15880;BME280;61999;51.514;14.614;2023-07-29T11:02:12;99164.34;;;17.99;62.38
15880;BME280;61999;51.514;14.614;2023-07-29T11:04:50;99154.00;;;18.80;59.24
15880;BME280;61999;51.514;14.614;2023-07-29T11:07:24;99154.13;;;19.68;58.04
15880;BME280;61999;51.514;14.614;2023-07-29T11:10:01;99152.16;;;19.35;57.98
15880;BME280;61999;51.514;14.614;2023-07-29T11:12:44;99149.19;;;19.98;55.13
15880;BME280;61999;51.514;14.614;2023-07-29T11:15:24;99150.50;;;19.21;56.85
15880;BME280;61999;51.514;14.614;2023-07-29T11:17:54;99156.13;;;20.52;54.28
15880;BME280;61999;51.514;14.614;2023-07-29T11:20:24;99148.97;;;21.11;51.65
15880;BME280;61999;51.514;14.614;2023-07-29T11:22:54;99136.94;;;21.84;51.17
15880;BME280;61999;51.514;14.614;2023-07-29T11:25:24;99133.44;;;21.20;49.51
15880;BME280;61999;51.514;14.614;2023-07-29T11:27:54;99138.47;;;20.32;53.56
15880;BME280;61999;51.514;14.614;2023-07-29T11:30:24;99124.47;;;20.29;53.71
15880;BME280;61999;51.514;14.614;2023-07-29T11:32:54;99126.53;;;20.01;54.40
15880;BME280;61999;51.514;14.614;2023-07-29T11:35:22;99119.47;;;20.60;52.90
15880;BME280;61999;51.514;14.614;2023-07-29T11:37:52;99110.88;;;19.58;51.53
15880;BME280;61999;51.514;14.614;2023-07-29T11:40:22;99111.56;;;20.78;49.76
15880;BME280;61999;51.514;14.614;2023-07-29T11:42:51;99114.81;;;20.02;47.81
15880;BME280;61999;51.514;14.614;2023-07-29T11:45:24;99101.44;;;19.69;49.27
15880;BME280;61999;51.514;14.614;2023-07-29T11:47:58;99109.34;;;19.09;50.19
15880;BME280;61999;51.514;14.614;2023-07-29T11:50:26;99108.13;;;18.00;52.67
15880;BME280;61999;51.514;14.614;2023-07-29T11:52:54;99097.97;;;18.11;53.36
15880;BME280;61999;51.514;14.614;2023-07-29T11:55:22;99084.81;;;18.16;52.89
15880;BME280;61999;51.514;14.614;2023-07-29T11:57:52;99093.41;;;18.04;53.88
15880;BME280;61999;51.514;14.614;2023-07-29T12:00:21;99093.06;;;18.21;54.81
15880;BME280;61999;51.514;14.614;2023-07-29T12:02:50;99088.63;;;18.28;52.81
15880;BME280;61999;51.514;14.614;2023-07-29T12:05:22;99110.31;;;18.18;53.35
15880;BME280;61999;51.514;14.614;2023-07-29T12:07:50;99107.97;;;17.80;54.90
15880;BME280;61999;51.514;14.614;2023-07-29T12:10:19;99103.34;;;17.89;54.98
15880;BME280;61999;51.514;14.614;2023-07-29T12:12:50;99094.19;;;17.55;56.72
15880;BME280;61999;51.514;14.614;2023-07-29T12:15:25;99085.47;;;17.40;57.90
15880;BME280;61999;51.514;14.614;2023-07-29T12:17:56;99097.00;;;17.26;58.59
15880;BME280;61999;51.514;14.614;2023-07-29T12:20:25;99111.44;;;15.14;100.00
15880;BME280;61999;51.514;14.614;2023-07-29T12:22:57;99109.56;;;13.13;100.00
15880;BME280;61999;51.514;14.614;2023-07-29T12:25:28;99090.59;;;13.58;100.00
15880;BME280;61999;51.514;14.614;2023-07-29T12:27:57;99099.19;;;13.69;100.00
15880;BME280;61999;51.514;14.614;2023-07-29T12:30:29;99094.06;;;13.67;100.00
15880;BME280;61999;51.514;14.614;2023-07-29T12:32:58;99087.78;;;13.93;100.00
15880;BME280;61999;51.514;14.614;2023-07-29T12:35:35;99087.81;;;14.48;100.00
15880;BME280;61999;51.514;14.614;2023-07-29T12:38:03;99090.84;;;14.29;100.00
15880;BME280;61999;51.514;14.614;2023-07-29T12:40:31;99086.22;;;14.15;100.00
15880;BME280;61999;51.514;14.614;2023-07-29T12:42:59;99094.97;;;14.32;100.00
15880;BME280;61999;51.514;14.614;2023-07-29T12:45:35;99087.88;;;14.24;100.00
15880;BME280;61999;51.514;14.614;2023-07-29T12:48:07;99085.56;;;14.21;100.00
15880;BME280;61999;51.514;14.614;2023-07-29T12:50:35;99078.38;;;14.46;100.00
15880;BME280;61999;51.514;14.614;2023-07-29T12:53:06;99067.31;;;14.73;100.00
15880;BME280;61999;51.514;14.614;2023-07-29T12:55:34;99067.09;;;15.14;100.00
15880;BME280;61999;51.514;14.614;2023-07-29T12:58:02;99062.88;;;15.28;100.00